sensor_id;sensor_type;location;lat;lon;timestamp;P1;durP1;ratioP1;P2;durP2;ratioP2
47764;SDS011;33529;49.242;8.670;2023-08-06T00:01:35;4.82;;;3.33;;
47764;SDS011;33529;49.242;8.670;2023-08-06T00:04:02;4.07;;;2.92;;
47764;SDS011;33529;49.242;8.670;2023-08-06T00:06:29;6.85;;;3.33;;
47764;SDS011;33529;49.242;8.670;2023-08-06T00:08:56;5.15;;;3.78;;
47764;SDS011;33529;49.242;8.670;2023-08-06T00:11:23;4.43;;;3.50;;
47764;SDS011;33529;49.242;8.670;2023-08-06T00:13:50;4.90;;;3.67;;
47764;SDS011;33529;49.242;8.670;2023-08-06T00:16:17;4.22;;;3.20;;
47764;SDS011;33529;49.242;8.670;2023-08-06T00:18:43;6.35;;;3.50;;
47764;SDS011;33529;49.242;8.670;2023-08-06T00:21:10;5.15;;;3.13;;
47764;SDS011;33529;49.242;8.670;2023-08-06T00:23:39;4.55;;;3.08;;
47764;SDS011;33529;49.242;8.670;2023-08-06T00:26:07;5.57;;;3.33;;
47764;SDS011;33529;49.242;8.670;2023-08-06T00:28:34;6.25;;;3.78;;
47764;SDS011;33529;49.242;8.670;2023-08-06T00:31:00;4.28;;;3.00;;
47764;SDS011;33529;49.242;8.670;2023-08-06T00:33:27;4.00;;;3.08;;
47764;SDS011;33529;49.242;8.670;2023-08-06T00:35:54;4.97;;;4.03;;
47764;SDS011;33529;49.242;8.670;2023-08-06T00:38:21;4.80;;;3.20;;
47764;SDS011;33529;49.242;8.670;2023-08-06T00:40:48;4.80;;;3.83;;
47764;SDS011;33529;49.242;8.670;2023-08-06T00:43:15;4.60;;;3.30;;
47764;SDS011;33529;49.242;8.670;2023-08-06T00:45:42;5.57;;;3.72;;
47764;SDS011;33529;49.242;8.670;2023-08-06T00:48:09;5.95;;;4.00;;
47764;SDS011;33529;49.242;8.670;2023-08-06T00:50:37;6.43;;;3.92;;
47764;SDS011;33529;49.242;8.670;2023-08-06T00:53:04;5.90;;;4.03;;
47764;SDS011;33529;49.242;8.670;2023-08-06T00:55:31;5.07;;;3.75;;
47764;SDS011;33529;49.242;8.670;2023-08-06T00:57:59;5.43;;;3.35;;
47764;SDS011;33529;49.242;8.670;2023-08-06T01:00:27;5.03;;;3.38;;
47764;SDS011;33529;49.242;8.670;2023-08-06T01:02:54;3.92;;;3.00;;
47764;SDS011;33529;49.242;8.670;2023-08-06T01:05:21;5.03;;;3.85;;
47764;SDS011;33529;49.242;8.670;2023-08-06T01:11:14;6.13;;;3.67;;
47764;SDS011;33529;49.242;8.670;2023-08-06T01:13:59;6.43;;;3.40;;
47764;SDS011;33529;49.242;8.670;2023-08-06T01:16:32;4.68;;;3.42;;
47764;SDS011;33529;49.242;8.670;2023-08-06T01:19:00;4.72;;;3.60;;
47764;SDS011;33529;49.242;8.670;2023-08-06T01:21:27;4.57;;;3.22;;
47764;SDS011;33529;49.242;8.670;2023-08-06T01:23:54;5.32;;;3.33;;
47764;SDS011;33529;49.242;8.670;2023-08-06T01:26:30;7.18;;;3.60;;
47764;SDS011;33529;49.242;8.670;2023-08-06T01:31:48;4.43;;;3.67;;
47764;SDS011;33529;49.242;8.670;2023-08-06T01:34:20;4.07;;;3.30;;
47764;SDS011;33529;49.242;8.670;2023-08-06T01:39:16;5.57;;;3.33;;
47764;SDS011;33529;49.242;8.670;2023-08-06T01:41:47;4.57;;;3.50;;
47764;SDS011;33529;49.242;8.670;2023-08-06T01:44:15;5.00;;;3.67;;
47764;SDS011;33529;49.242;8.670;2023-08-06T01:46:42;4.18;;;3.08;;
47764;SDS011;33529;49.242;8.670;2023-08-06T01:49:09;5.50;;;3.53;;
47764;SDS011;33529;49.242;8.670;2023-08-06T01:51:36;4.40;;;3.28;;
47764;SDS011;33529;49.242;8.670;2023-08-06T01:54:04;3.90;;;2.85;;
47764;SDS011;33529;49.242;8.670;2023-08-06T01:56:31;5.65;;;3.20;;
47764;SDS011;33529;49.242;8.670;2023-08-06T01:58:58;5.13;;;2.95;;
47764;SDS011;33529;49.242;8.670;2023-08-06T02:01:27;6.00;;;2.97;;
47764;SDS011;33529;49.242;8.670;2023-08-06T02:03:54;4.55;;;3.10;;
47764;SDS011;33529;49.242;8.670;2023-08-06T02:06:20;4.75;;;2.83;;
47764;SDS011;33529;49.242;8.670;2023-08-06T02:08:47;5.60;;;3.08;;
47764;SDS011;33529;49.242;8.670;2023-08-06T02:11:14;5.15;;;3.72;;
47764;SDS011;33529;49.242;8.670;2023-08-06T02:13:41;6.88;;;3.60;;
47764;SDS011;33529;49.242;8.670;2023-08-06T02:16:08;4.82;;;3.20;;
47764;SDS011;33529;49.242;8.670;2023-08-06T02:18:35;5.30;;;3.08;;
47764;SDS011;33529;49.242;8.670;2023-08-06T02:21:02;5.38;;;3.13;;
47764;SDS011;33529;49.242;8.670;2023-08-06T02:23:29;5.25;;;2.92;;
47764;SDS011;33529;49.242;8.670;2023-08-06T02:25:57;5.63;;;3.30;;
47764;SDS011;33529;49.242;8.670;2023-08-06T02:28:28;9.77;;;3.05;;
47764;SDS011;33529;49.242;8.670;2023-08-06T02:30:55;4.22;;;2.88;;
47764;SDS011;33529;49.242;8.670;2023-08-06T02:33:22;5.07;;;3.20;;
47764;SDS011;33529;49.242;8.670;2023-08-06T02:35:49;4.35;;;2.88;;
47764;SDS011;33529;49.242;8.670;2023-08-06T02:38:16;5.10;;;3.03;;
47764;SDS011;33529;49.242;8.670;2023-08-06T02:40:46;4.90;;;3.00;;
47764;SDS011;33529;49.242;8.670;2023-08-06T02:43:13;4.25;;;2.92;;
47764;SDS011;33529;49.242;8.670;2023-08-06T02:45:41;4.97;;;3.00;;
47764;SDS011;33529;49.242;8.670;2023-08-06T02:48:08;4.47;;;2.47;;
47764;SDS011;33529;49.242;8.670;2023-08-06T02:50:38;6.10;;;3.00;;
47764;SDS011;33529;49.242;8.670;2023-08-06T02:53:08;4.45;;;2.88;;
47764;SDS011;33529;49.242;8.670;2023-08-06T02:55:36;7.22;;;2.80;;
47764;SDS011;33529;49.242;8.670;2023-08-06T02:58:10;4.97;;;2.90;;
47764;SDS011;33529;49.242;8.670;2023-08-06T03:00:43;6.05;;;2.85;;
47764;SDS011;33529;49.242;8.670;2023-08-06T03:03:11;4.70;;;3.10;;
47764;SDS011;33529;49.242;8.670;2023-08-06T03:05:51;6.28;;;3.10;;
47764;SDS011;33529;49.242;8.670;2023-08-06T03:08:26;6.50;;;3.00;;
47764;SDS011;33529;49.242;8.670;2023-08-06T03:10:54;4.85;;;2.70;;
47764;SDS011;33529;49.242;8.670;2023-08-06T03:13:21;6.72;;;3.25;;
47764;SDS011;33529;49.242;8.670;2023-08-06T03:15:55;5.20;;;2.70;;
47764;SDS011;33529;49.242;8.670;2023-08-06T03:18:24;4.63;;;2.80;;
47764;SDS011;33529;49.242;8.670;2023-08-06T03:20:58;5.38;;;3.10;;
47764;SDS011;33529;49.242;8.670;2023-08-06T03:23:28;4.90;;;2.95;;
47764;SDS011;33529;49.242;8.670;2023-08-06T03:25:55;4.95;;;3.20;;
47764;SDS011;33529;49.242;8.670;2023-08-06T03:28:23;4.13;;;2.78;;
47764;SDS011;33529;49.242;8.670;2023-08-06T03:30:58;5.22;;;2.90;;
47764;SDS011;33529;49.242;8.670;2023-08-06T03:33:41;5.55;;;3.15;;
47764;SDS011;33529;49.242;8.670;2023-08-06T03:38:41;8.10;;;3.63;;
47764;SDS011;33529;49.242;8.670;2023-08-06T03:41:10;5.05;;;3.03;;
47764;SDS011;33529;49.242;8.670;2023-08-06T03:43:37;4.85;;;2.65;;
47764;SDS011;33529;49.242;8.670;2023-08-06T03:46:08;4.40;;;2.83;;
47764;SDS011;33529;49.242;8.670;2023-08-06T03:48:36;4.32;;;2.85;;
47764;SDS011;33529;49.242;8.670;2023-08-06T03:51:03;5.78;;;2.63;;
47764;SDS011;33529;49.242;8.670;2023-08-06T03:53:30;4.45;;;2.78;;
47764;SDS011;33529;49.242;8.670;2023-08-06T03:55:57;4.45;;;2.70;;
47764;SDS011;33529;49.242;8.670;2023-08-06T03:58:26;4.93;;;2.22;;
47764;SDS011;33529;49.242;8.670;2023-08-06T04:00:58;5.47;;;2.33;;
47764;SDS011;33529;49.242;8.670;2023-08-06T04:03:30;5.57;;;2.35;;
47764;SDS011;33529;49.242;8.670;2023-08-06T04:05:57;5.57;;;1.98;;
47764;SDS011;33529;49.242;8.670;2023-08-06T04:08:24;6.03;;;2.20;;
47764;SDS011;33529;49.242;8.670;2023-08-06T04:10:51;7.78;;;2.05;;
47764;SDS011;33529;49.242;8.670;2023-08-06T04:13:19;5.28;;;2.60;;
47764;SDS011;33529;49.242;8.670;2023-08-06T04:15:46;5.10;;;1.83;;
47764;SDS011;33529;49.242;8.670;2023-08-06T04:18:14;3.88;;;2.13;;
47764;SDS011;33529;49.242;8.670;2023-08-06T04:20:44;5.40;;;2.10;;
47764;SDS011;33529;49.242;8.670;2023-08-06T04:23:12;4.57;;;1.83;;
47764;SDS011;33529;49.242;8.670;2023-08-06T04:25:39;4.75;;;1.85;;
47764;SDS011;33529;49.242;8.670;2023-08-06T04:28:06;3.95;;;1.73;;
47764;SDS011;33529;49.242;8.670;2023-08-06T04:30:33;7.88;;;2.47;;
47764;SDS011;33529;49.242;8.670;2023-08-06T04:33:01;5.65;;;1.95;;
47764;SDS011;33529;49.242;8.670;2023-08-06T04:35:29;3.90;;;1.63;;
47764;SDS011;33529;49.242;8.670;2023-08-06T04:37:55;5.65;;;2.05;;
47764;SDS011;33529;49.242;8.670;2023-08-06T04:40:22;6.05;;;2.08;;
47764;SDS011;33529;49.242;8.670;2023-08-06T04:42:50;4.75;;;2.22;;
47764;SDS011;33529;49.242;8.670;2023-08-06T04:45:19;7.68;;;2.22;;
47764;SDS011;33529;49.242;8.670;2023-08-06T04:47:45;4.78;;;1.80;;
47764;SDS011;33529;49.242;8.670;2023-08-06T04:50:12;4.53;;;1.75;;
47764;SDS011;33529;49.242;8.670;2023-08-06T04:52:39;3.65;;;1.33;;
47764;SDS011;33529;49.242;8.670;2023-08-06T04:55:06;6.13;;;2.13;;
47764;SDS011;33529;49.242;8.670;2023-08-06T04:57:33;6.07;;;1.85;;
47764;SDS011;33529;49.242;8.670;2023-08-06T05:00:00;5.13;;;1.70;;
47764;SDS011;33529;49.242;8.670;2023-08-06T05:02:27;3.53;;;1.38;;
47764;SDS011;33529;49.242;8.670;2023-08-06T05:04:54;4.75;;;1.98;;
47764;SDS011;33529;49.242;8.670;2023-08-06T05:07:20;3.30;;;1.55;;
47764;SDS011;33529;49.242;8.670;2023-08-06T05:09:47;5.53;;;1.80;;
47764;SDS011;33529;49.242;8.670;2023-08-06T05:12:14;3.90;;;1.80;;
47764;SDS011;33529;49.242;8.670;2023-08-06T05:14:41;6.70;;;1.75;;
47764;SDS011;33529;49.242;8.670;2023-08-06T05:17:08;5.32;;;1.40;;
47764;SDS011;33529;49.242;8.670;2023-08-06T05:19:34;3.83;;;1.45;;
47764;SDS011;33529;49.242;8.670;2023-08-06T05:22:01;4.95;;;1.73;;
47764;SDS011;33529;49.242;8.670;2023-08-06T05:24:28;5.53;;;1.58;;
47764;SDS011;33529;49.242;8.670;2023-08-06T05:26:55;5.32;;;1.80;;
47764;SDS011;33529;49.242;8.670;2023-08-06T05:29:22;5.18;;;1.98;;
47764;SDS011;33529;49.242;8.670;2023-08-06T05:31:49;6.35;;;1.95;;
47764;SDS011;33529;49.242;8.670;2023-08-06T05:34:15;3.13;;;1.67;;
47764;SDS011;33529;49.242;8.670;2023-08-06T05:36:42;6.10;;;1.90;;
47764;SDS011;33529;49.242;8.670;2023-08-06T05:39:09;5.07;;;1.92;;
47764;SDS011;33529;49.242;8.670;2023-08-06T05:41:36;5.03;;;1.95;;
47764;SDS011;33529;49.242;8.670;2023-08-06T05:44:03;6.40;;;1.95;;
47764;SDS011;33529;49.242;8.670;2023-08-06T05:46:30;4.60;;;1.50;;
47764;SDS011;33529;49.242;8.670;2023-08-06T05:48:56;4.60;;;1.73;;
47764;SDS011;33529;49.242;8.670;2023-08-06T05:51:23;4.47;;;1.48;;
47764;SDS011;33529;49.242;8.670;2023-08-06T05:53:51;4.82;;;1.48;;
47764;SDS011;33529;49.242;8.670;2023-08-06T05:56:18;3.58;;;1.80;;
47764;SDS011;33529;49.242;8.670;2023-08-06T05:58:45;4.43;;;2.20;;
47764;SDS011;33529;49.242;8.670;2023-08-06T06:01:13;4.82;;;1.88;;
47764;SDS011;33529;49.242;8.670;2023-08-06T06:03:40;5.97;;;2.00;;
47764;SDS011;33529;49.242;8.670;2023-08-06T06:06:07;8.38;;;2.00;;
47764;SDS011;33529;49.242;8.670;2023-08-06T06:08:34;4.18;;;1.35;;
47764;SDS011;33529;49.242;8.670;2023-08-06T06:11:01;3.47;;;1.50;;
47764;SDS011;33529;49.242;8.670;2023-08-06T06:13:28;3.08;;;1.30;;
47764;SDS011;33529;49.242;8.670;2023-08-06T06:15:55;4.93;;;1.60;;
47764;SDS011;33529;49.242;8.670;2023-08-06T06:18:22;3.15;;;1.08;;
47764;SDS011;33529;49.242;8.670;2023-08-06T06:20:49;4.85;;;1.38;;
47764;SDS011;33529;49.242;8.670;2023-08-06T06:23:16;5.20;;;1.27;;
47764;SDS011;33529;49.242;8.670;2023-08-06T06:25:43;4.10;;;1.40;;
47764;SDS011;33529;49.242;8.670;2023-08-06T06:28:15;2.75;;;1.08;;
47764;SDS011;33529;49.242;8.670;2023-08-06T06:30:42;2.22;;;0.95;;
47764;SDS011;33529;49.242;8.670;2023-08-06T06:33:09;2.22;;;1.00;;
47764;SDS011;33529;49.242;8.670;2023-08-06T06:35:36;2.42;;;1.15;;
47764;SDS011;33529;49.242;8.670;2023-08-06T06:38:03;3.08;;;1.00;;
47764;SDS011;33529;49.242;8.670;2023-08-06T06:40:30;3.95;;;1.10;;
47764;SDS011;33529;49.242;8.670;2023-08-06T06:42:57;3.92;;;1.25;;
47764;SDS011;33529;49.242;8.670;2023-08-06T06:45:23;3.08;;;0.93;;
47764;SDS011;33529;49.242;8.670;2023-08-06T06:47:50;3.13;;;1.42;;
47764;SDS011;33529;49.242;8.670;2023-08-06T06:50:17;1.92;;;0.95;;
47764;SDS011;33529;49.242;8.670;2023-08-06T06:52:44;2.33;;;1.42;;
47764;SDS011;33529;49.242;8.670;2023-08-06T06:55:10;1.60;;;0.85;;
47764;SDS011;33529;49.242;8.670;2023-08-06T06:57:38;2.35;;;1.00;;
47764;SDS011;33529;49.242;8.670;2023-08-06T07:00:05;2.60;;;0.80;;
47764;SDS011;33529;49.242;8.670;2023-08-06T07:02:32;1.70;;;0.70;;
47764;SDS011;33529;49.242;8.670;2023-08-06T07:04:59;2.92;;;1.10;;
47764;SDS011;33529;49.242;8.670;2023-08-06T07:07:26;2.30;;;0.90;;
47764;SDS011;33529;49.242;8.670;2023-08-06T07:09:53;2.47;;;1.05;;
47764;SDS011;33529;49.242;8.670;2023-08-06T07:12:20;1.70;;;0.70;;
47764;SDS011;33529;49.242;8.670;2023-08-06T07:14:48;2.42;;;0.80;;
47764;SDS011;33529;49.242;8.670;2023-08-06T07:17:14;1.60;;;0.73;;
47764;SDS011;33529;49.242;8.670;2023-08-06T07:19:41;2.53;;;1.20;;
47764;SDS011;33529;49.242;8.670;2023-08-06T07:22:08;2.10;;;1.00;;
47764;SDS011;33529;49.242;8.670;2023-08-06T07:24:35;1.85;;;0.93;;
47764;SDS011;33529;49.242;8.670;2023-08-06T07:27:01;3.70;;;1.30;;
47764;SDS011;33529;49.242;8.670;2023-08-06T07:29:29;2.55;;;1.20;;
47764;SDS011;33529;49.242;8.670;2023-08-06T07:31:56;1.90;;;0.70;;
47764;SDS011;33529;49.242;8.670;2023-08-06T07:34:22;1.98;;;0.82;;
47764;SDS011;33529;49.242;8.670;2023-08-06T07:36:49;2.35;;;0.80;;
47764;SDS011;33529;49.242;8.670;2023-08-06T07:39:16;1.55;;;0.80;;
47764;SDS011;33529;49.242;8.670;2023-08-06T07:41:43;1.02;;;0.60;;
47764;SDS011;33529;49.242;8.670;2023-08-06T07:44:12;1.52;;;0.60;;
47764;SDS011;33529;49.242;8.670;2023-08-06T07:46:38;1.65;;;0.60;;
47764;SDS011;33529;49.242;8.670;2023-08-06T07:49:05;1.38;;;0.55;;
47764;SDS011;33529;49.242;8.670;2023-08-06T07:51:32;2.17;;;0.88;;
47764;SDS011;33529;49.242;8.670;2023-08-06T07:53:59;3.50;;;1.00;;
47764;SDS011;33529;49.242;8.670;2023-08-06T07:56:26;1.27;;;0.70;;
47764;SDS011;33529;49.242;8.670;2023-08-06T07:58:52;1.67;;;0.63;;
47764;SDS011;33529;49.242;8.670;2023-08-06T08:01:19;1.10;;;0.60;;
47764;SDS011;33529;49.242;8.670;2023-08-06T08:03:46;1.40;;;0.68;;
47764;SDS011;33529;49.242;8.670;2023-08-06T08:06:13;1.58;;;0.60;;
47764;SDS011;33529;49.242;8.670;2023-08-06T08:08:40;1.55;;;0.75;;
47764;SDS011;33529;49.242;8.670;2023-08-06T08:11:07;1.35;;;0.80;;
47764;SDS011;33529;49.242;8.670;2023-08-06T08:13:33;2.92;;;0.60;;
47764;SDS011;33529;49.242;8.670;2023-08-06T08:16:00;2.08;;;0.52;;
47764;SDS011;33529;49.242;8.670;2023-08-06T08:18:28;1.50;;;0.63;;
47764;SDS011;33529;49.242;8.670;2023-08-06T08:20:56;1.23;;;0.50;;
47764;SDS011;33529;49.242;8.670;2023-08-06T08:23:22;1.38;;;0.50;;
47764;SDS011;33529;49.242;8.670;2023-08-06T08:25:50;1.08;;;0.70;;
47764;SDS011;33529;49.242;8.670;2023-08-06T08:28:17;1.58;;;0.55;;
47764;SDS011;33529;49.242;8.670;2023-08-06T08:30:44;1.88;;;0.73;;
47764;SDS011;33529;49.242;8.670;2023-08-06T08:33:11;3.92;;;0.77;;
47764;SDS011;33529;49.242;8.670;2023-08-06T08:35:37;1.35;;;0.60;;
47764;SDS011;33529;49.242;8.670;2023-08-06T08:38:04;1.33;;;0.50;;
47764;SDS011;33529;49.242;8.670;2023-08-06T08:40:31;1.67;;;0.52;;
47764;SDS011;33529;49.242;8.670;2023-08-06T08:42:59;0.73;;;0.40;;
47764;SDS011;33529;49.242;8.670;2023-08-06T08:45:27;1.50;;;0.50;;
47764;SDS011;33529;49.242;8.670;2023-08-06T08:47:55;1.85;;;0.40;;
47764;SDS011;33529;49.242;8.670;2023-08-06T08:50:22;1.02;;;0.40;;
47764;SDS011;33529;49.242;8.670;2023-08-06T08:52:50;1.17;;;0.30;;
47764;SDS011;33529;49.242;8.670;2023-08-06T08:55:17;0.35;;;0.30;;
47764;SDS011;33529;49.242;8.670;2023-08-06T08:57:47;1.30;;;0.40;;
47764;SDS011;33529;49.242;8.670;2023-08-06T09:00:14;0.40;;;0.30;;
47764;SDS011;33529;49.242;8.670;2023-08-06T09:02:41;0.70;;;0.30;;
47764;SDS011;33529;49.242;8.670;2023-08-06T09:05:09;0.68;;;0.30;;
47764;SDS011;33529;49.242;8.670;2023-08-06T09:07:46;1.10;;;0.40;;
47764;SDS011;33529;49.242;8.670;2023-08-06T09:10:16;0.93;;;0.47;;
47764;SDS011;33529;49.242;8.670;2023-08-06T09:12:47;0.90;;;0.38;;
47764;SDS011;33529;49.242;8.670;2023-08-06T09:15:16;2.92;;;0.38;;
47764;SDS011;33529;49.242;8.670;2023-08-06T09:17:43;2.75;;;0.50;;
47764;SDS011;33529;49.242;8.670;2023-08-06T09:20:11;0.88;;;0.43;;
47764;SDS011;33529;49.242;8.670;2023-08-06T09:22:39;1.20;;;0.50;;
47764;SDS011;33529;49.242;8.670;2023-08-06T09:25:06;1.10;;;0.40;;
47764;SDS011;33529;49.242;8.670;2023-08-06T09:27:36;0.55;;;0.30;;
47764;SDS011;33529;49.242;8.670;2023-08-06T09:30:04;0.50;;;0.40;;
47764;SDS011;33529;49.242;8.670;2023-08-06T09:32:44;1.25;;;0.60;;
47764;SDS011;33529;49.242;8.670;2023-08-06T09:35:18;0.80;;;0.47;;
47764;SDS011;33529;49.242;8.670;2023-08-06T09:37:45;1.20;;;0.40;;
47764;SDS011;33529;49.242;8.670;2023-08-06T09:42:54;1.25;;;0.47;;
47764;SDS011;33529;49.242;8.670;2023-08-06T09:45:22;0.30;;;0.22;;
47764;SDS011;33529;49.242;8.670;2023-08-06T09:47:59;1.25;;;0.45;;
47764;SDS011;33529;49.242;8.670;2023-08-06T09:50:28;1.13;;;0.30;;
47764;SDS011;33529;49.242;8.670;2023-08-06T09:52:59;1.00;;;0.30;;
47764;SDS011;33529;49.242;8.670;2023-08-06T09:55:27;1.70;;;0.45;;
47764;SDS011;33529;49.242;8.670;2023-08-06T09:57:54;0.57;;;0.30;;
47764;SDS011;33529;49.242;8.670;2023-08-06T10:00:21;0.82;;;0.38;;
47764;SDS011;33529;49.242;8.670;2023-08-06T10:02:49;1.05;;;0.30;;
47764;SDS011;33529;49.242;8.670;2023-08-06T10:05:20;2.80;;;0.47;;
47764;SDS011;33529;49.242;8.670;2023-08-06T10:07:48;1.65;;;0.50;;
47764;SDS011;33529;49.242;8.670;2023-08-06T10:10:17;0.60;;;0.30;;
47764;SDS011;33529;49.242;8.670;2023-08-06T10:12:46;1.55;;;0.40;;
47764;SDS011;33529;49.242;8.670;2023-08-06T10:15:19;1.05;;;0.52;;
47764;SDS011;33529;49.242;8.670;2023-08-06T10:17:51;0.55;;;0.30;;
47764;SDS011;33529;49.242;8.670;2023-08-06T10:20:22;0.20;;;0.20;;
47764;SDS011;33529;49.242;8.670;2023-08-06T10:23:05;1.67;;;0.50;;
47764;SDS011;33529;49.242;8.670;2023-08-06T10:25:36;0.52;;;0.30;;
47764;SDS011;33529;49.242;8.670;2023-08-06T10:28:10;0.40;;;0.30;;
47764;SDS011;33529;49.242;8.670;2023-08-06T10:30:44;1.88;;;0.40;;
47764;SDS011;33529;49.242;8.670;2023-08-06T10:33:12;0.32;;;0.30;;
47764;SDS011;33529;49.242;8.670;2023-08-06T10:38:20;0.90;;;0.43;;
47764;SDS011;33529;49.242;8.670;2023-08-06T10:43:29;2.08;;;0.75;;
47764;SDS011;33529;49.242;8.670;2023-08-06T10:45:58;0.60;;;0.30;;
47764;SDS011;33529;49.242;8.670;2023-08-06T10:50:59;1.85;;;0.60;;
47764;SDS011;33529;49.242;8.670;2023-08-06T10:53:27;2.08;;;0.90;;
47764;SDS011;33529;49.242;8.670;2023-08-06T10:55:57;1.77;;;0.90;;
47764;SDS011;33529;49.242;8.670;2023-08-06T10:58:24;3.72;;;1.00;;
47764;SDS011;33529;49.242;8.670;2023-08-06T11:00:51;1.63;;;0.88;;
47764;SDS011;33529;49.242;8.670;2023-08-06T11:03:18;2.60;;;0.88;;
47764;SDS011;33529;49.242;8.670;2023-08-06T11:05:49;1.67;;;1.08;;
47764;SDS011;33529;49.242;8.670;2023-08-06T11:08:26;4.47;;;1.20;;
47764;SDS011;33529;49.242;8.670;2023-08-06T11:10:53;1.95;;;1.30;;
47764;SDS011;33529;49.242;8.670;2023-08-06T11:13:29;2.00;;;1.20;;
47764;SDS011;33529;49.242;8.670;2023-08-06T11:15:57;1.58;;;0.98;;
47764;SDS011;33529;49.242;8.670;2023-08-06T11:18:24;3.60;;;1.65;;
47764;SDS011;33529;49.242;8.670;2023-08-06T11:20:51;2.05;;;1.40;;
47764;SDS011;33529;49.242;8.670;2023-08-06T11:23:18;2.22;;;1.35;;
47764;SDS011;33529;49.242;8.670;2023-08-06T11:25:45;3.30;;;1.73;;
47764;SDS011;33529;49.242;8.670;2023-08-06T11:28:12;3.75;;;1.92;;
47764;SDS011;33529;49.242;8.670;2023-08-06T11:30:39;3.60;;;1.90;;
47764;SDS011;33529;49.242;8.670;2023-08-06T11:33:07;4.13;;;1.85;;
47764;SDS011;33529;49.242;8.670;2023-08-06T11:35:36;3.33;;;1.80;;
47764;SDS011;33529;49.242;8.670;2023-08-06T11:38:04;4.07;;;1.90;;
47764;SDS011;33529;49.242;8.670;2023-08-06T11:40:31;3.78;;;2.42;;
47764;SDS011;33529;49.242;8.670;2023-08-06T11:42:59;3.42;;;1.80;;
47764;SDS011;33529;49.242;8.670;2023-08-06T11:45:26;2.97;;;2.00;;
47764;SDS011;33529;49.242;8.670;2023-08-06T11:47:52;3.22;;;1.92;;
47764;SDS011;33529;49.242;8.670;2023-08-06T11:50:26;3.65;;;2.20;;
47764;SDS011;33529;49.242;8.670;2023-08-06T11:52:56;3.58;;;2.30;;
47764;SDS011;33529;49.242;8.670;2023-08-06T11:55:25;3.95;;;2.42;;
47764;SDS011;33529;49.242;8.670;2023-08-06T11:57:54;3.67;;;2.40;;
47764;SDS011;33529;49.242;8.670;2023-08-06T12:00:23;4.72;;;2.20;;
47764;SDS011;33529;49.242;8.670;2023-08-06T12:02:51;2.97;;;1.98;;
47764;SDS011;33529;49.242;8.670;2023-08-06T12:05:20;2.97;;;1.80;;
47764;SDS011;33529;49.242;8.670;2023-08-06T12:07:51;4.60;;;2.40;;
47764;SDS011;33529;49.242;8.670;2023-08-06T12:10:18;3.75;;;2.05;;
47764;SDS011;33529;49.242;8.670;2023-08-06T12:12:46;4.22;;;1.80;;
47764;SDS011;33529;49.242;8.670;2023-08-06T12:15:14;4.20;;;1.90;;
47764;SDS011;33529;49.242;8.670;2023-08-06T12:17:41;3.55;;;2.22;;
47764;SDS011;33529;49.242;8.670;2023-08-06T12:20:08;4.07;;;2.40;;
47764;SDS011;33529;49.242;8.670;2023-08-06T12:22:36;3.90;;;2.25;;
47764;SDS011;33529;49.242;8.670;2023-08-06T12:25:05;3.80;;;2.17;;
47764;SDS011;33529;49.242;8.670;2023-08-06T12:27:35;3.75;;;2.33;;
47764;SDS011;33529;49.242;8.670;2023-08-06T12:30:02;3.90;;;2.47;;
47764;SDS011;33529;49.242;8.670;2023-08-06T12:32:30;4.80;;;2.28;;
47764;SDS011;33529;49.242;8.670;2023-08-06T12:34:57;3.85;;;2.75;;
47764;SDS011;33529;49.242;8.670;2023-08-06T12:37:24;5.22;;;2.20;;
47764;SDS011;33529;49.242;8.670;2023-08-06T12:39:51;4.63;;;2.50;;
47764;SDS011;33529;49.242;8.670;2023-08-06T12:42:19;3.78;;;2.47;;
47764;SDS011;33529;49.242;8.670;2023-08-06T12:44:46;5.22;;;2.67;;
47764;SDS011;33529;49.242;8.670;2023-08-06T12:47:15;6.00;;;2.42;;
47764;SDS011;33529;49.242;8.670;2023-08-06T12:49:43;6.10;;;3.42;;
47764;SDS011;33529;49.242;8.670;2023-08-06T12:52:10;6.05;;;3.20;;
47764;SDS011;33529;49.242;8.670;2023-08-06T12:54:38;7.68;;;3.65;;
47764;SDS011;33529;49.242;8.670;2023-08-06T12:57:05;6.32;;;3.70;;
47764;SDS011;33529;49.242;8.670;2023-08-06T12:59:32;6.07;;;2.63;;
47764;SDS011;33529;49.242;8.670;2023-08-06T13:02:00;4.28;;;2.90;;
47764;SDS011;33529;49.242;8.670;2023-08-06T13:04:27;5.07;;;3.35;;
47764;SDS011;33529;49.242;8.670;2023-08-06T13:06:54;4.85;;;3.17;;
47764;SDS011;33529;49.242;8.670;2023-08-06T13:09:21;3.92;;;2.78;;
47764;SDS011;33529;49.242;8.670;2023-08-06T13:11:49;5.07;;;3.88;;
47764;SDS011;33529;49.242;8.670;2023-08-06T13:14:16;5.60;;;3.95;;
47764;SDS011;33529;49.242;8.670;2023-08-06T13:16:44;5.90;;;3.63;;
47764;SDS011;33529;49.242;8.670;2023-08-06T13:19:11;6.03;;;3.20;;
47764;SDS011;33529;49.242;8.670;2023-08-06T13:24:07;5.90;;;2.67;;
47764;SDS011;33529;49.242;8.670;2023-08-06T13:26:35;6.65;;;2.47;;
47764;SDS011;33529;49.242;8.670;2023-08-06T13:29:01;4.05;;;2.50;;
47764;SDS011;33529;49.242;8.670;2023-08-06T13:31:29;5.78;;;2.40;;
47764;SDS011;33529;49.242;8.670;2023-08-06T13:33:56;5.63;;;2.65;;
47764;SDS011;33529;49.242;8.670;2023-08-06T13:36:26;7.20;;;3.45;;
47764;SDS011;33529;49.242;8.670;2023-08-06T13:38:53;4.47;;;2.90;;
47764;SDS011;33529;49.242;8.670;2023-08-06T13:41:21;4.05;;;2.65;;
47764;SDS011;33529;49.242;8.670;2023-08-06T13:43:48;5.88;;;2.78;;
47764;SDS011;33529;49.242;8.670;2023-08-06T13:46:15;5.38;;;3.92;;
47764;SDS011;33529;49.242;8.670;2023-08-06T13:48:46;5.78;;;3.40;;
47764;SDS011;33529;49.242;8.670;2023-08-06T13:51:14;3.85;;;2.50;;
47764;SDS011;33529;49.242;8.670;2023-08-06T13:53:41;3.63;;;2.28;;
47764;SDS011;33529;49.242;8.670;2023-08-06T13:56:09;3.78;;;2.20;;
47764;SDS011;33529;49.242;8.670;2023-08-06T13:58:37;3.45;;;1.90;;
47764;SDS011;33529;49.242;8.670;2023-08-06T14:01:05;4.28;;;2.03;;
47764;SDS011;33529;49.242;8.670;2023-08-06T14:03:32;4.10;;;2.30;;
47764;SDS011;33529;49.242;8.670;2023-08-06T14:06:00;5.88;;;2.30;;
47764;SDS011;33529;49.242;8.670;2023-08-06T14:08:27;5.35;;;1.85;;
47764;SDS011;33529;49.242;8.670;2023-08-06T14:10:54;3.50;;;1.40;;
47764;SDS011;33529;49.242;8.670;2023-08-06T14:13:21;4.20;;;2.35;;
47764;SDS011;33529;49.242;8.670;2023-08-06T14:15:49;5.80;;;3.33;;
47764;SDS011;33529;49.242;8.670;2023-08-06T14:18:16;5.20;;;2.83;;
47764;SDS011;33529;49.242;8.670;2023-08-06T14:20:43;3.03;;;2.10;;
47764;SDS011;33529;49.242;8.670;2023-08-06T14:23:10;3.05;;;1.73;;
47764;SDS011;33529;49.242;8.670;2023-08-06T14:25:38;4.15;;;2.70;;
47764;SDS011;33529;49.242;8.670;2023-08-06T14:28:05;2.70;;;1.55;;
47764;SDS011;33529;49.242;8.670;2023-08-06T14:30:33;2.85;;;1.67;;
47764;SDS011;33529;49.242;8.670;2023-08-06T14:33:01;3.22;;;1.63;;
47764;SDS011;33529;49.242;8.670;2023-08-06T14:35:49;3.63;;;1.65;;
47764;SDS011;33529;49.242;8.670;2023-08-06T14:38:17;2.75;;;1.52;;
47764;SDS011;33529;49.242;8.670;2023-08-06T14:40:44;2.60;;;1.52;;
47764;SDS011;33529;49.242;8.670;2023-08-06T14:43:11;2.42;;;1.38;;
47764;SDS011;33529;49.242;8.670;2023-08-06T14:45:41;3.10;;;1.20;;
47764;SDS011;33529;49.242;8.670;2023-08-06T14:48:07;2.65;;;1.27;;
47764;SDS011;33529;49.242;8.670;2023-08-06T14:50:34;2.88;;;1.48;;
47764;SDS011;33529;49.242;8.670;2023-08-06T14:53:02;2.65;;;1.50;;
47764;SDS011;33529;49.242;8.670;2023-08-06T14:55:30;3.60;;;1.52;;
47764;SDS011;33529;49.242;8.670;2023-08-06T14:58:00;3.25;;;1.50;;
47764;SDS011;33529;49.242;8.670;2023-08-06T15:00:27;5.15;;;2.10;;
47764;SDS011;33529;49.242;8.670;2023-08-06T15:02:54;3.95;;;2.55;;
47764;SDS011;33529;49.242;8.670;2023-08-06T15:05:21;3.58;;;2.05;;
47764;SDS011;33529;49.242;8.670;2023-08-06T15:07:48;3.95;;;2.00;;
47764;SDS011;33529;49.242;8.670;2023-08-06T15:10:15;5.25;;;2.35;;
47764;SDS011;33529;49.242;8.670;2023-08-06T15:12:45;3.45;;;2.05;;
47764;SDS011;33529;49.242;8.670;2023-08-06T15:15:11;3.83;;;2.40;;
47764;SDS011;33529;49.242;8.670;2023-08-06T15:17:38;3.30;;;2.25;;